Meteo Giornale » Osservazioni meteo Gran Bretagna » Mildenhall Royal
ore: 00:55 - Osservazioni Meteo Mildenhall Royal
Lat. 52° 22' N Lon. 0° 29' E Alt. 10 metri s.l.m.
14 °C
Molto Nuvoloso
Temp. 24 Ore
14 °C
22 °C
Ovest
7.4 Km/h
Dew point 10 °C
Umidità 76 %
Visibilità 10 Km
Il sole sorge alle ore 06:09
Il sole tramonta alle ore 19:46
| Data e Ora | Cielo e Fenomeni | T °C | DP °C | Um. % | Pres. hPa | Vis. km | Vento km/h | |
|---|---|---|---|---|---|---|---|---|
| Oggi h: 00:55 | Molto Nuvoloso | 14 | 10 | 76 | 1017 | 10 | O 7.4 | |
| Ieri h: 23:55 | Molto Nuvoloso | 16 | 11 | 72 | 1017 | 10 | O/NO 9.3 | |
| Ieri h: 22:55 | Coperto | 17 | 11 | 67 | 1017 | 10 | O/NO 16.7 | |
| Ieri h: 22:15 | Molto Nuvoloso | 17 | 11 | 67 | 1016 | 10 | O 16.7 | |
| Ieri h: 21:55 | Molto Nuvoloso | 17 | 11 | 67 | 1016 | 10 | O/NO 18.5 | |
| Ieri h: 20:55 | Molto Nuvoloso | 19 | 11 | 59 | 1015 | 10 | NO 20.3 | |
| Ieri h: 19:55 | Molto Nuvoloso | 20 | 12 | 59 | 1014 | 10 | O/NO 14.8 | |
| Ieri h: 19:35 | Molto Nuvoloso | 20 | 12 | 59 | 1014 | 10 | O/NO 18.5 | |
| Ieri h: 19:15 | Coperto | 20 | 11 | 56 | 1014 | 10 | O/NO 24 | |
| Ieri h: 18:55 | Molto Nuvoloso | 21 | 11 | 52 | 1013 | 10 | O/NO 22.2 | |
| Ieri h: 17:55 | Molto Nuvoloso | 22 | 12 | 53 | 1012 | 10 | O 22.2 | |
| Ieri h: 16:55 | Molto Nuvoloso | 21 | 13 | 60 | 1012 | 10 | O 25.9 | |
| Ieri h: 15:55 | Nuvoloso | 22 | 14 | 60 | 1011 | 10 | O 27.8 | |
| Ieri h: 14:55 | Molto Nuvoloso | 22 | 13 | 56 | 1010 | 10 | O 24 | |
| Ieri h: 13:55 | Molto Nuvoloso | 22 | 12 | 53 | 1010 | 10 | O 24 | |
| Ieri h: 13:45 | Molto Nuvoloso | 21 | 12 | 56 | 1009 | 10 | O 25.9 | |
| Ieri h: 13:25 | Molto Nuvoloso | 21 | 12 | 56 | 1009 | 10 | O 25.9 | |
| Ieri h: 13:05 | Molto Nuvoloso | 21 | 12 | 56 | 1009 | 10 | O 18.5 | |
| Ieri h: 12:55 | Molto Nuvoloso | 22 | 12 | 53 | 1009 | 10 | O 29.6 | |
| Ieri h: 12:25 | Nuvoloso | 20 | 12 | 59 | 1008 | 10 | O/NO 25.9 | |
| Ieri h: 12:15 | Molto Nuvoloso | 21 | 13 | 60 | 1008 | 10 | O 27.8 | |
| Ieri h: 12:05 | Molto Nuvoloso | 21 | 12 | 56 | 1008 | 10 | O 29.6 | |
| Ieri h: 11:55 | Nuvoloso | 20 | 13 | 64 | 1008 | 10 | O 24 | |
| Ieri h: 10:55 | Molto Nuvoloso | 18 | 12 | 67 | 1008 | 10 | O 29.6 | |
| Ieri h: 10:45 | Molto Nuvoloso | 18 | 12 | 67 | 1007 | 10 | O 24 | |
| Ieri h: 10:35 | Molto Nuvoloso | 18 | 12 | 67 | 1007 | 10 | O 18.5 | |
| Ieri h: 10:25 | Molto Nuvoloso | 17 | 12 | 72 | 1007 | 10 | O 22.2 | |
| Ieri h: 09:55 | Molto Nuvoloso | 17 | 12 | 72 | 1007 | 10 | O 20.3 | |
| Ieri h: 09:45 | Molto Nuvoloso | 17 | 13 | 77 | 1007 | 10 | O 24 | |
| Ieri h: 08:55 | Nuvoloso | 16 | 12 | 77 | 1006 | 10 | O/SO 20.3 | |
| Ieri h: 07:55 | Nuvoloso | 15 | 12 | 82 | 1005 | 10 | O/SO 18.5 | |
| Ieri h: 06:55 | Molto Nuvoloso | 14 | 11 | 82 | 1004 | 10 | O/SO 14.8 | |
| Ieri h: 05:55 | Molto Nuvoloso | 15 | 12 | 82 | 1003 | 10 | O/SO 18.5 | |
| Ieri h: 04:55 | Molto Nuvoloso | 16 | 14 | 87 | 1003 | 10 | SO 13 | |
| Ieri h: 04:46 | Coperto | 16 | 14 | 87 | 1003 | 10 | S/SO 13 | |
| Ieri h: 04:37 | Pioggia | 16 | 13 | 82 | 1003 | 10 | S 11.1 | |
| Ieri h: 04:25 | Molto Nuvoloso | 16 | 13 | 82 | 1003 | 10 | S 9.3 | |
| Ieri h: 04:05 | Pioggia Foschia | 16 | 13 | 82 | 1003 | 9 | S 7.4 | |
| Ieri h: 03:56 | Molto Nuvoloso | 16 | 13 | 82 | 1003 | 10 | O/SO 7.4 | |
| Ieri h: 03:55 | Pioggia | 16 | 13 | 82 | 1003 | 10 | N 5.5 | |
| Ieri h: 03:38 | Pioggia Foschia | 15 | 13 | 87 | 1003 | 9 | S 9.3 | |
| Ieri h: 02:56 | Nuvoloso | 16 | 13 | 82 | 1003 | 10 | N 5.5 | |
| Ieri h: 01:55 | Poco Nuvoloso | 16 | 13 | 82 | 1003 | 10 | S/SO 14.8 | |



